sensor_id;sensor_type;location;lat;lon;timestamp;temperature;humidity
35682;DHT22;21805;51.022;4.782;2022-08-19T00:51:14;20.50;99.90
35682;DHT22;21805;51.022;4.782;2022-08-19T00:53:39;20.60;99.90
35682;DHT22;21805;51.022;4.782;2022-08-19T00:56:07;20.60;99.90
35682;DHT22;21805;51.022;4.782;2022-08-19T00:58:45;20.60;99.90
35682;DHT22;21805;51.022;4.782;2022-08-19T01:01:23;20.60;99.90
35682;DHT22;21805;51.022;4.782;2022-08-19T01:03:50;20.60;99.90
35682;DHT22;21805;51.022;4.782;2022-08-19T01:06:16;20.50;99.90
35682;DHT22;21805;51.022;4.782;2022-08-19T01:11:46;20.50;99.90
35682;DHT22;21805;51.022;4.782;2022-08-19T01:14:19;20.40;99.90
35682;DHT22;21805;51.022;4.782;2022-08-19T01:17:02;20.40;99.90
35682;DHT22;21805;51.022;4.782;2022-08-19T01:19:29;20.40;99.90
35682;DHT22;21805;51.022;4.782;2022-08-19T01:21:59;20.40;99.90
35682;DHT22;21805;51.022;4.782;2022-08-19T01:24:40;20.30;99.90
35682;DHT22;21805;51.022;4.782;2022-08-19T01:27:40;20.40;99.90
35682;DHT22;21805;51.022;4.782;2022-08-19T01:30:21;20.30;99.90
35682;DHT22;21805;51.022;4.782;2022-08-19T01:32:50;20.30;99.90
35682;DHT22;21805;51.022;4.782;2022-08-19T01:35:22;20.30;99.90
35682;DHT22;21805;51.022;4.782;2022-08-19T01:46:45;20.20;99.90
35682;DHT22;21805;51.022;4.782;2022-08-19T01:52:54;20.10;99.90
35682;DHT22;21805;51.022;4.782;2022-08-19T04:02:26;19.20;99.90
35682;DHT22;21805;51.022;4.782;2022-08-19T04:04:59;19.30;99.90
35682;DHT22;21805;51.022;4.782;2022-08-19T04:07:26;19.30;99.90
35682;DHT22;21805;51.022;4.782;2022-08-19T04:09:59;19.20;99.90
35682;DHT22;21805;51.022;4.782;2022-08-19T04:12:32;19.20;99.90
35682;DHT22;21805;51.022;4.782;2022-08-19T04:15:07;19.20;99.90
35682;DHT22;21805;51.022;4.782;2022-08-19T04:17:36;19.10;99.90
35682;DHT22;21805;51.022;4.782;2022-08-19T04:20:12;19.10;99.90
35682;DHT22;21805;51.022;4.782;2022-08-19T04:22:38;19.10;99.90
35682;DHT22;21805;51.022;4.782;2022-08-19T04:25:04;19.10;99.90
35682;DHT22;21805;51.022;4.782;2022-08-19T04:27:46;19.10;99.90
35682;DHT22;21805;51.022;4.782;2022-08-19T04:30:25;19.10;99.90
35682;DHT22;21805;51.022;4.782;2022-08-19T04:32:51;19.10;99.90
35682;DHT22;21805;51.022;4.782;2022-08-19T04:35:17;19.10;99.90
35682;DHT22;21805;51.022;4.782;2022-08-19T04:37:43;19.00;99.90
35682;DHT22;21805;51.022;4.782;2022-08-19T04:40:11;19.00;99.90
35682;DHT22;21805;51.022;4.782;2022-08-19T04:42:55;18.90;99.90
35682;DHT22;21805;51.022;4.782;2022-08-19T04:45:21;18.90;99.90
35682;DHT22;21805;51.022;4.782;2022-08-19T04:47:49;18.90;99.90
35682;DHT22;21805;51.022;4.782;2022-08-19T04:50:15;18.90;99.90
35682;DHT22;21805;51.022;4.782;2022-08-19T04:52:43;18.90;99.90
35682;DHT22;21805;51.022;4.782;2022-08-19T04:55:18;18.90;99.90
35682;DHT22;21805;51.022;4.782;2022-08-19T04:57:52;18.90;99.90
35682;DHT22;21805;51.022;4.782;2022-08-19T05:03:06;18.80;99.90
35682;DHT22;21805;51.022;4.782;2022-08-19T05:08:26;18.90;99.90
35682;DHT22;21805;51.022;4.782;2022-08-19T05:10:52;18.90;99.90
35682;DHT22;21805;51.022;4.782;2022-08-19T05:13:18;18.80;99.90
35682;DHT22;21805;51.022;4.782;2022-08-19T05:15:55;18.90;99.90
35682;DHT22;21805;51.022;4.782;2022-08-19T05:18:24;19.00;99.90
35682;DHT22;21805;51.022;4.782;2022-08-19T05:21:14;19.00;99.90
35682;DHT22;21805;51.022;4.782;2022-08-19T05:24:03;19.10;99.90
35682;DHT22;21805;51.022;4.782;2022-08-19T05:26:29;19.10;99.90
35682;DHT22;21805;51.022;4.782;2022-08-19T05:28:57;19.20;99.90
35682;DHT22;21805;51.022;4.782;2022-08-19T05:31:23;19.20;99.90
35682;DHT22;21805;51.022;4.782;2022-08-19T05:33:49;19.30;99.90
35682;DHT22;21805;51.022;4.782;2022-08-19T05:36:21;19.40;99.90
35682;DHT22;21805;51.022;4.782;2022-08-19T05:38:52;19.40;99.90
35682;DHT22;21805;51.022;4.782;2022-08-19T06:25:20;20.40;99.90
35682;DHT22;21805;51.022;4.782;2022-08-19T06:27:45;20.50;99.90
35682;DHT22;21805;51.022;4.782;2022-08-19T06:30:11;20.50;99.90
35682;DHT22;21805;51.022;4.782;2022-08-19T06:32:38;20.50;99.90
35682;DHT22;21805;51.022;4.782;2022-08-19T06:35:10;20.60;99.90
35682;DHT22;21805;51.022;4.782;2022-08-19T06:37:36;20.60;99.90
35682;DHT22;21805;51.022;4.782;2022-08-19T06:40:04;20.70;99.90
35682;DHT22;21805;51.022;4.782;2022-08-19T11:12:30;27.00;99.90
35682;DHT22;21805;51.022;4.782;2022-08-19T11:15:02;27.00;99.90
35682;DHT22;21805;51.022;4.782;2022-08-19T11:22:52;26.60;99.90
35682;DHT22;21805;51.022;4.782;2022-08-19T11:25:31;26.80;99.90
35682;DHT22;21805;51.022;4.782;2022-08-19T11:28:05;26.90;99.90
35682;DHT22;21805;51.022;4.782;2022-08-19T11:30:42;26.90;99.90
35682;DHT22;21805;51.022;4.782;2022-08-19T11:33:08;27.00;99.90
35682;DHT22;21805;51.022;4.782;2022-08-19T11:35:52;26.90;99.90
35682;DHT22;21805;51.022;4.782;2022-08-19T11:38:25;26.90;99.90
35682;DHT22;21805;51.022;4.782;2022-08-19T11:41:07;26.80;99.90
35682;DHT22;21805;51.022;4.782;2022-08-19T11:49:01;26.30;99.90
35682;DHT22;21805;51.022;4.782;2022-08-19T11:51:44;26.30;99.90
35682;DHT22;21805;51.022;4.782;2022-08-19T11:57:07;26.30;99.90
35682;DHT22;21805;51.022;4.782;2022-08-19T12:02:22;26.10;99.90
35682;DHT22;21805;51.022;4.782;2022-08-19T12:05:12;26.00;99.90
35682;DHT22;21805;51.022;4.782;2022-08-19T12:08:11;25.80;99.90
35682;DHT22;21805;51.022;4.782;2022-08-19T12:15:56;25.60;99.90
35682;DHT22;21805;51.022;4.782;2022-08-19T12:18:35;25.70;99.90
35682;DHT22;21805;51.022;4.782;2022-08-19T12:24:35;26.00;99.90
35682;DHT22;21805;51.022;4.782;2022-08-19T12:27:38;26.00;99.90
35682;DHT22;21805;51.022;4.782;2022-08-19T12:30:21;26.20;99.90
35682;DHT22;21805;51.022;4.782;2022-08-19T12:33:10;26.20;99.90
35682;DHT22;21805;51.022;4.782;2022-08-19T12:38:58;26.50;99.90
35682;DHT22;21805;51.022;4.782;2022-08-19T12:52:37;26.50;99.90
35682;DHT22;21805;51.022;4.782;2022-08-19T12:55:34;26.60;99.90
35682;DHT22;21805;51.022;4.782;2022-08-19T12:58:24;26.90;99.90
35682;DHT22;21805;51.022;4.782;2022-08-19T13:00:58;27.10;99.90
35682;DHT22;21805;51.022;4.782;2022-08-19T13:03:26;27.20;99.90
35682;DHT22;21805;51.022;4.782;2022-08-19T13:06:07;27.40;99.90
35682;DHT22;21805;51.022;4.782;2022-08-19T13:12:12;27.10;99.90
35682;DHT22;21805;51.022;4.782;2022-08-19T13:14:42;26.90;99.90
35682;DHT22;21805;51.022;4.782;2022-08-19T13:19:53;27.20;99.90
35682;DHT22;21805;51.022;4.782;2022-08-19T13:25:04;27.70;99.90
35682;DHT22;21805;51.022;4.782;2022-08-19T13:38:23;29.10;99.90
35682;DHT22;21805;51.022;4.782;2022-08-19T13:40:53;28.80;99.90
35682;DHT22;21805;51.022;4.782;2022-08-19T13:43:23;28.60;99.90
35682;DHT22;21805;51.022;4.782;2022-08-19T13:45:52;28.60;99.90
35682;DHT22;21805;51.022;4.782;2022-08-19T13:48:25;28.50;99.90
35682;DHT22;21805;51.022;4.782;2022-08-19T13:51:08;28.50;99.90
35682;DHT22;21805;51.022;4.782;2022-08-19T14:04:19;28.30;99.90
35682;DHT22;21805;51.022;4.782;2022-08-19T14:06:47;28.40;99.90
35682;DHT22;21805;51.022;4.782;2022-08-19T14:11:54;28.20;99.90
35682;DHT22;21805;51.022;4.782;2022-08-19T14:14:44;28.30;99.90
35682;DHT22;21805;51.022;4.782;2022-08-19T14:20:33;28.50;99.90
35682;DHT22;21805;51.022;4.782;2022-08-19T14:23:01;28.50;99.90
35682;DHT22;21805;51.022;4.782;2022-08-19T14:28:30;28.20;99.90
35682;DHT22;21805;51.022;4.782;2022-08-19T14:33:42;27.80;99.90
35682;DHT22;21805;51.022;4.782;2022-08-19T14:36:14;27.70;99.90
35682;DHT22;21805;51.022;4.782;2022-08-19T14:41:29;27.70;99.90
35682;DHT22;21805;51.022;4.782;2022-08-19T14:44:14;28.10;99.90
35682;DHT22;21805;51.022;4.782;2022-08-19T18:37:24;24.90;99.90
35682;DHT22;21805;51.022;4.782;2022-08-19T18:40:20;24.90;99.90
35682;DHT22;21805;51.022;4.782;2022-08-19T18:43:19;24.80;99.90
35682;DHT22;21805;51.022;4.782;2022-08-19T18:45:51;24.80;99.90
35682;DHT22;21805;51.022;4.782;2022-08-19T18:48:45;24.70;99.90
35682;DHT22;21805;51.022;4.782;2022-08-19T18:51:30;24.40;99.90
35682;DHT22;21805;51.022;4.782;2022-08-19T18:57:38;24.40;99.90
35682;DHT22;21805;51.022;4.782;2022-08-19T19:27:54;23.40;99.90
35682;DHT22;21805;51.022;4.782;2022-08-19T21:30:10;22.70;99.90
35682;DHT22;21805;51.022;4.782;2022-08-19T21:32:37;22.60;99.90
35682;DHT22;21805;51.022;4.782;2022-08-19T21:35:03;22.60;99.90
35682;DHT22;21805;51.022;4.782;2022-08-19T21:37:30;22.60;99.90
35682;DHT22;21805;51.022;4.782;2022-08-19T21:45:09;22.60;99.90
35682;DHT22;21805;51.022;4.782;2022-08-19T21:47:44;22.60;99.90
35682;DHT22;21805;51.022;4.782;2022-08-19T21:55:53;22.60;99.90
35682;DHT22;21805;51.022;4.782;2022-08-19T21:58:21;22.60;99.90
35682;DHT22;21805;51.022;4.782;2022-08-19T22:00:50;22.60;99.90
35682;DHT22;21805;51.022;4.782;2022-08-19T22:03:24;22.60;99.90
35682;DHT22;21805;51.022;4.782;2022-08-19T22:05:57;22.60;99.90
35682;DHT22;21805;51.022;4.782;2022-08-19T22:08:27;22.50;99.90
35682;DHT22;21805;51.022;4.782;2022-08-19T22:28:57;22.50;99.90
35682;DHT22;21805;51.022;4.782;2022-08-19T22:31:26;22.40;99.90
35682;DHT22;21805;51.022;4.782;2022-08-19T22:33:53;22.50;99.90
35682;DHT22;21805;51.022;4.782;2022-08-19T22:36:20;22.50;99.90
35682;DHT22;21805;51.022;4.782;2022-08-19T22:38:48;22.50;99.90
35682;DHT22;21805;51.022;4.782;2022-08-19T22:43:49;22.40;99.90
35682;DHT22;21805;51.022;4.782;2022-08-19T22:48:44;22.40;99.90
35682;DHT22;21805;51.022;4.782;2022-08-19T22:51:15;22.40;99.90
35682;DHT22;21805;51.022;4.782;2022-08-19T22:54:01;22.30;99.90
35682;DHT22;21805;51.022;4.782;2022-08-19T22:56:31;22.30;99.90
35682;DHT22;21805;51.022;4.782;2022-08-19T22:59:01;22.30;99.90
35682;DHT22;21805;51.022;4.782;2022-08-19T23:01:29;22.30;99.90
35682;DHT22;21805;51.022;4.782;2022-08-19T23:04:01;22.30;99.90
35682;DHT22;21805;51.022;4.782;2022-08-19T23:06:31;22.20;99.90
35682;DHT22;21805;51.022;4.782;2022-08-19T23:09:02;22.30;99.90
35682;DHT22;21805;51.022;4.782;2022-08-19T23:11:37;22.30;99.90
35682;DHT22;21805;51.022;4.782;2022-08-19T23:14:05;22.20;99.90
35682;DHT22;21805;51.022;4.782;2022-08-19T23:16:33;22.20;99.90
35682;DHT22;21805;51.022;4.782;2022-08-19T23:19:03;22.20;99.90
35682;DHT22;21805;51.022;4.782;2022-08-19T23:21:29;22.10;99.90
35682;DHT22;21805;51.022;4.782;2022-08-19T23:24:03;22.10;99.90
35682;DHT22;21805;51.022;4.782;2022-08-19T23:26:32;22.10;99.90
35682;DHT22;21805;51.022;4.782;2022-08-19T23:28:59;22.10;99.90
35682;DHT22;21805;51.022;4.782;2022-08-19T23:31:46;22.10;99.90
35682;DHT22;21805;51.022;4.782;2022-08-19T23:34:21;22.00;99.90
35682;DHT22;21805;51.022;4.782;2022-08-19T23:36:51;22.00;99.90
35682;DHT22;21805;51.022;4.782;2022-08-19T23:39:30;21.90;99.90
35682;DHT22;21805;51.022;4.782;2022-08-19T23:42:07;21.80;99.90
35682;DHT22;21805;51.022;4.782;2022-08-19T23:47:07;21.80;99.90
35682;DHT22;21805;51.022;4.782;2022-08-19T23:49:35;21.70;99.90
35682;DHT22;21805;51.022;4.782;2022-08-19T23:52:04;21.80;99.90
35682;DHT22;21805;51.022;4.782;2022-08-19T23:54:33;21.80;99.90
35682;DHT22;21805;51.022;4.782;2022-08-19T23:57:00;21.80;99.90
35682;DHT22;21805;51.022;4.782;2022-08-19T23:59:25;21.70;99.90
